createdAt,value
2023-03-14T00:02:07.624Z,6.28
2023-03-14T00:04:34.088Z,3.83
2023-03-14T00:07:00.856Z,8.45
2023-03-14T00:09:27.714Z,10.85
2023-03-14T00:11:54.651Z,9.55
2023-03-14T00:14:21.123Z,4.28
2023-03-14T00:16:47.925Z,6.40
2023-03-14T00:19:14.550Z,6.25
2023-03-14T00:21:41.104Z,6.28
2023-03-14T00:24:08.902Z,4.95
2023-03-14T00:26:37.313Z,5.18
2023-03-14T00:29:03.965Z,2.87
2023-03-14T00:31:30.607Z,3.67
2023-03-14T00:33:58.029Z,7.80
2023-03-14T00:36:25.418Z,4.80
2023-03-14T00:38:53.021Z,4.57
2023-03-14T00:41:23.580Z,3.30
2023-03-14T00:43:50.984Z,6.25
2023-03-14T00:46:18.473Z,3.55
2023-03-14T00:48:48.007Z,7.20
2023-03-14T00:51:16.060Z,6.78
2023-03-14T00:53:43.036Z,3.10
2023-03-14T00:56:12.953Z,4.75
2023-03-14T00:58:41.192Z,5.82
2023-03-14T01:01:16.651Z,8.98
2023-03-14T01:03:44.732Z,4.45
2023-03-14T01:06:12.931Z,3.80
2023-03-14T01:08:39.606Z,4.63
2023-03-14T01:11:11.015Z,2.28
2023-03-14T01:13:38.009Z,3.80
2023-03-14T01:16:07.635Z,3.08
2023-03-14T01:18:36.178Z,3.37
2023-03-14T01:21:04.752Z,6.70
2023-03-14T01:23:31.424Z,2.67
2023-03-14T01:25:58.184Z,3.22
2023-03-14T01:28:25.797Z,6.20
2023-03-14T01:30:52.487Z,5.07
2023-03-14T01:33:19.115Z,4.03
2023-03-14T01:35:45.689Z,5.40
2023-03-14T01:38:12.317Z,9.35
2023-03-14T01:40:46.062Z,3.25
2023-03-14T01:43:18.658Z,11.00
2023-03-14T01:46:04.067Z,7.20
2023-03-14T01:48:36.781Z,4.20
2023-03-14T01:51:05.972Z,1.92
2023-03-14T01:53:35.118Z,4.10
2023-03-14T01:56:01.608Z,5.10
2023-03-14T01:58:30.699Z,3.97
2023-03-14T02:00:59.242Z,6.70
2023-03-14T02:03:28.365Z,4.72
2023-03-14T02:05:57.857Z,8.25
2023-03-14T02:08:25.710Z,6.80
2023-03-14T02:10:52.305Z,7.18
2023-03-14T02:13:21.035Z,4.93
2023-03-14T02:15:48.090Z,8.38
2023-03-14T02:18:16.585Z,5.50
2023-03-14T02:21:09.563Z,4.67
2023-03-14T02:23:48.974Z,5.38
2023-03-14T02:26:27.454Z,6.25
2023-03-14T02:28:54.504Z,4.90
2023-03-14T02:31:23.444Z,3.58
2023-03-14T02:33:51.921Z,3.10
2023-03-14T02:36:21.710Z,4.95
2023-03-14T02:38:56.040Z,12.70
2023-03-14T02:41:22.634Z,7.57
2023-03-14T02:43:49.168Z,5.38
2023-03-14T02:46:20.066Z,9.03
2023-03-14T02:48:52.523Z,5.05
2023-03-14T02:51:19.210Z,7.00
2023-03-14T02:53:45.772Z,8.35
2023-03-14T02:56:13.287Z,6.25
2023-03-14T02:58:42.117Z,3.77
2023-03-14T03:01:08.686Z,7.47
2023-03-14T03:03:35.485Z,7.05
2023-03-14T03:06:02.428Z,2.83
2023-03-14T03:08:29.970Z,5.82
2023-03-14T03:10:58.450Z,3.73
2023-03-14T03:13:25.319Z,4.85
2023-03-14T03:15:52.149Z,3.05
2023-03-14T03:18:18.670Z,6.47
2023-03-14T03:20:45.573Z,4.20
2023-03-14T03:23:13.700Z,6.87
2023-03-14T03:25:40.635Z,3.78
2023-03-14T03:28:08.849Z,4.90
2023-03-14T03:30:39.819Z,7.82
2023-03-14T03:33:06.448Z,2.53
2023-03-14T03:35:33.337Z,5.80
2023-03-14T03:37:59.865Z,4.10
2023-03-14T03:40:27.478Z,6.32
2023-03-14T03:42:54.041Z,5.53
2023-03-14T03:45:20.550Z,1.95
2023-03-14T03:47:47.196Z,3.80
2023-03-14T03:50:13.801Z,2.47
2023-03-14T03:52:40.345Z,4.97
2023-03-14T03:55:07.141Z,3.78
2023-03-14T03:57:33.764Z,4.68
2023-03-14T04:00:00.409Z,3.37
2023-03-14T04:02:27.034Z,5.05
2023-03-14T04:04:54.146Z,3.67
2023-03-14T04:07:20.665Z,6.32
2023-03-14T04:09:47.304Z,3.15
2023-03-14T04:12:14.340Z,2.83
2023-03-14T04:14:42.180Z,2.72
2023-03-14T04:17:09.231Z,2.90
2023-03-14T04:19:35.889Z,7.68
2023-03-14T04:22:02.399Z,7.20
2023-03-14T04:24:28.900Z,1.93
2023-03-14T04:26:55.584Z,2.20
2023-03-14T04:29:22.389Z,5.45
2023-03-14T04:31:48.890Z,3.78
2023-03-14T04:34:15.443Z,4.55
2023-03-14T04:36:41.947Z,3.30
2023-03-14T04:39:09.090Z,3.90
2023-03-14T04:41:35.640Z,3.22
2023-03-14T04:44:02.234Z,3.03
2023-03-14T04:46:28.774Z,7.45
2023-03-14T04:48:57.320Z,3.37
2023-03-14T04:51:26.225Z,2.65
2023-03-14T04:53:52.685Z,2.60
2023-03-14T04:56:19.170Z,2.55
2023-03-14T04:58:45.688Z,3.20
2023-03-14T05:01:12.292Z,4.10
2023-03-14T05:03:39.176Z,4.32
2023-03-14T05:06:06.066Z,1.45
2023-03-14T05:08:32.768Z,0.55
2023-03-14T05:10:59.497Z,0.57
2023-03-14T05:13:26.341Z,0.50
2023-03-14T05:15:53.043Z,0.40
2023-03-14T05:18:19.933Z,0.80
2023-03-14T05:20:46.406Z,0.73
2023-03-14T05:23:13.063Z,1.23
2023-03-14T05:25:39.682Z,0.57
2023-03-14T05:28:06.187Z,0.47
2023-03-14T05:30:33.372Z,0.70
2023-03-14T05:33:00.016Z,1.52
2023-03-14T05:35:26.724Z,2.10
2023-03-14T05:37:53.233Z,0.70
2023-03-14T05:40:20.241Z,0.98
2023-03-14T05:42:46.853Z,0.70
2023-03-14T05:45:14.784Z,0.70
2023-03-14T05:47:41.392Z,0.70
2023-03-14T05:50:08.432Z,0.50
2023-03-14T05:52:34.915Z,0.50
2023-03-14T05:55:01.408Z,0.80
2023-03-14T05:57:27.952Z,0.50
2023-03-14T05:59:54.458Z,0.60
2023-03-14T06:02:20.962Z,0.53
2023-03-14T06:04:47.512Z,0.47
2023-03-14T06:07:14.078Z,0.60
2023-03-14T06:09:40.800Z,0.55
2023-03-14T06:12:07.449Z,0.70
2023-03-14T06:14:33.962Z,0.63
2023-03-14T06:17:00.484Z,0.50
2023-03-14T06:19:27.287Z,0.80
2023-03-14T06:21:53.781Z,0.60
2023-03-14T06:24:20.234Z,0.77
2023-03-14T06:26:46.968Z,6.53
2023-03-14T06:29:14.484Z,0.50
2023-03-14T06:31:41.194Z,0.77
2023-03-14T06:34:10.123Z,0.70
2023-03-14T06:36:36.618Z,0.60
2023-03-14T06:39:04.162Z,0.50
2023-03-14T06:41:30.671Z,1.02
2023-03-14T06:43:57.268Z,0.70
2023-03-14T06:46:24.016Z,0.40
2023-03-14T06:48:50.816Z,0.60
2023-03-14T06:51:17.330Z,0.50
2023-03-14T06:53:43.995Z,0.47
2023-03-14T06:56:10.999Z,0.55
2023-03-14T06:58:37.608Z,0.70
2023-03-14T07:01:04.420Z,0.60
2023-03-14T07:03:30.944Z,0.70
2023-03-14T07:05:57.853Z,0.70
2023-03-14T07:08:24.462Z,0.80
2023-03-14T07:10:51.077Z,0.50
2023-03-14T07:13:17.845Z,1.02
2023-03-14T07:15:46.273Z,0.60
2023-03-14T07:18:12.851Z,0.60
2023-03-14T07:20:39.528Z,0.60
2023-03-14T07:23:06.104Z,0.60
2023-03-14T07:25:32.692Z,0.77
2023-03-14T07:27:59.213Z,0.70
2023-03-14T07:30:25.704Z,0.80
2023-03-14T07:32:52.913Z,0.70
2023-03-14T07:35:20.023Z,0.80
2023-03-14T07:37:46.741Z,0.70
2023-03-14T07:40:16.244Z,0.53
2023-03-14T07:42:43.947Z,0.60
2023-03-14T07:45:12.464Z,2.65
2023-03-14T07:47:39.291Z,0.70
2023-03-14T07:50:06.678Z,0.75
2023-03-14T07:52:33.297Z,0.50
2023-03-14T07:55:00.003Z,2.17
2023-03-14T07:57:26.644Z,0.70
2023-03-14T07:59:53.325Z,0.50
2023-03-14T08:02:23.745Z,0.63
2023-03-14T08:04:51.038Z,0.50
2023-03-14T08:07:17.644Z,0.60
2023-03-14T08:09:44.229Z,0.55
2023-03-14T08:12:10.871Z,0.70
2023-03-14T08:14:37.452Z,0.70
2023-03-14T08:17:04.378Z,0.60
2023-03-14T08:19:30.933Z,0.80
2023-03-14T08:21:57.451Z,0.70
2023-03-14T08:24:24.179Z,0.50
2023-03-14T08:26:50.883Z,0.60
2023-03-14T08:29:17.903Z,12.47
2023-03-14T08:31:45.377Z,0.40
2023-03-14T08:34:11.897Z,0.70
2023-03-14T08:36:38.761Z,0.50
2023-03-14T08:39:08.584Z,0.70
2023-03-14T08:41:41.100Z,0.60
2023-03-14T08:44:12.707Z,0.43
2023-03-14T08:46:39.384Z,4.20
2023-03-14T08:49:06.024Z,0.50
2023-03-14T08:51:32.556Z,0.70
2023-03-14T08:53:59.137Z,3.47
2023-03-14T08:56:26.225Z,0.60
2023-03-14T08:58:52.952Z,1.33
2023-03-14T09:01:20.508Z,0.55
2023-03-14T09:03:49.123Z,0.70
2023-03-14T09:06:19.069Z,0.60
2023-03-14T09:08:46.580Z,0.40
2023-03-14T09:11:13.563Z,0.93
2023-03-14T09:13:41.032Z,0.55
2023-03-14T09:16:09.137Z,0.80
2023-03-14T09:18:36.187Z,0.53
2023-03-14T09:21:03.532Z,0.60
2023-03-14T09:23:30.178Z,0.70
2023-03-14T09:25:57.640Z,2.97
2023-03-14T09:28:24.615Z,0.65
2023-03-14T09:30:51.443Z,0.70
2023-03-14T09:33:18.632Z,0.70
2023-03-14T09:35:45.385Z,1.13
2023-03-14T09:38:11.924Z,0.60
2023-03-14T09:40:39.436Z,3.35
2023-03-14T09:43:06.596Z,0.70
2023-03-14T09:45:38.084Z,8.07
2023-03-14T09:48:06.012Z,7.40
2023-03-14T09:50:43.111Z,10.95
2023-03-14T09:53:17.837Z,8.50
2023-03-14T09:55:47.238Z,5.50
2023-03-14T09:58:17.698Z,10.25
2023-03-14T10:00:44.997Z,7.40
2023-03-14T10:03:14.628Z,7.75
2023-03-14T10:05:42.452Z,6.90
2023-03-14T10:08:13.393Z,4.07
2023-03-14T10:10:40.550Z,9.70
2023-03-14T10:13:28.880Z,7.40
2023-03-14T10:16:05.079Z,11.27
2023-03-14T10:18:32.102Z,9.10
2023-03-14T10:21:30.330Z,13.73
2023-03-14T10:24:31.968Z,12.40
2023-03-14T10:27:05.871Z,6.30
2023-03-14T10:29:34.286Z,8.10
2023-03-14T10:32:02.665Z,15.18
2023-03-14T10:34:32.331Z,8.63
2023-03-14T10:37:18.532Z,6.93
2023-03-14T10:39:59.695Z,4.63
2023-03-14T10:42:32.753Z,2.95
2023-03-14T10:45:06.816Z,9.98
2023-03-14T10:47:33.907Z,7.93
2023-03-14T10:50:30.728Z,14.05
2023-03-14T10:53:03.180Z,3.00
2023-03-14T10:55:41.201Z,6.32
2023-03-14T10:58:22.042Z,5.43
2023-03-14T11:00:58.834Z,4.03
2023-03-14T11:03:29.701Z,8.95
2023-03-14T11:06:25.581Z,10.23
2023-03-14T11:09:06.680Z,7.53
2023-03-14T11:11:34.644Z,10.85
2023-03-14T11:14:13.026Z,5.50
2023-03-14T11:16:48.018Z,10.30
2023-03-14T11:19:17.520Z,13.48
2023-03-14T11:22:15.363Z,15.90
2023-03-14T11:24:58.463Z,7.53
2023-03-14T11:27:45.159Z,10.83
2023-03-14T11:30:17.599Z,13.85
2023-03-14T11:33:09.768Z,10.43
2023-03-14T11:35:56.609Z,10.32
2023-03-14T11:38:44.075Z,11.90
2023-03-14T11:41:16.913Z,14.07
2023-03-14T11:43:49.898Z,13.35
2023-03-14T11:46:27.656Z,14.73
2023-03-14T11:49:19.878Z,25.90
2023-03-14T11:51:49.021Z,8.15
2023-03-14T11:54:18.142Z,13.83
2023-03-14T11:56:56.110Z,11.25
2023-03-14T11:59:47.675Z,7.72
2023-03-14T12:02:54.657Z,12.00
2023-03-14T12:05:40.209Z,8.32
2023-03-14T12:08:09.614Z,11.40
2023-03-14T12:10:47.881Z,9.35
2023-03-14T12:13:17.113Z,8.45
2023-03-14T12:16:06.668Z,10.75
2023-03-14T12:18:43.516Z,16.27
2023-03-14T12:21:13.744Z,11.40
2023-03-14T12:23:46.930Z,7.88
2023-03-14T12:26:20.742Z,13.95
2023-03-14T12:28:51.731Z,9.15
2023-03-14T12:31:30.751Z,8.10
2023-03-14T12:34:10.537Z,12.43
2023-03-14T12:36:57.402Z,12.40
2023-03-14T12:39:34.199Z,6.45
2023-03-14T12:42:04.032Z,7.13
2023-03-14T12:44:30.484Z,4.80
2023-03-14T12:47:01.469Z,6.93
2023-03-14T12:49:39.007Z,5.10
2023-03-14T12:52:16.354Z,8.55
2023-03-14T12:55:18.347Z,8.90
2023-03-14T12:58:01.174Z,6.13
2023-03-14T13:00:35.781Z,7.13
2023-03-14T13:03:26.751Z,4.90
2023-03-14T13:05:58.983Z,9.63
2023-03-14T13:08:42.006Z,5.57
2023-03-14T13:11:19.145Z,4.55
2023-03-14T13:13:52.999Z,2.20
2023-03-14T13:16:22.144Z,3.47
2023-03-14T13:19:16.615Z,1.35
2023-03-14T13:21:43.182Z,1.33
2023-03-14T13:24:24.795Z,1.23
2023-03-14T13:26:55.184Z,1.57
2023-03-14T13:29:24.381Z,1.55
2023-03-14T13:31:58.601Z,3.55
2023-03-14T13:34:34.751Z,2.17
2023-03-14T13:37:01.939Z,4.15
2023-03-14T13:39:30.479Z,4.77
2023-03-14T13:42:01.356Z,1.80
2023-03-14T13:44:48.241Z,3.92
2023-03-14T13:47:18.792Z,2.97
2023-03-14T13:49:46.434Z,4.65
2023-03-14T13:52:32.602Z,2.90
2023-03-14T13:55:01.723Z,2.95
2023-03-14T13:57:28.336Z,6.18
2023-03-14T14:00:07.773Z,7.20
2023-03-14T14:02:36.705Z,5.65
2023-03-14T14:05:04.245Z,5.23
2023-03-14T14:07:31.301Z,7.78
2023-03-14T14:10:01.480Z,10.75
2023-03-14T14:12:34.565Z,5.38
2023-03-14T14:15:29.516Z,4.05
2023-03-14T14:18:01.513Z,8.97
2023-03-14T14:20:36.290Z,7.72
2023-03-14T14:23:05.237Z,6.75
2023-03-14T14:25:32.406Z,9.60
2023-03-14T14:27:59.093Z,4.88
2023-03-14T14:30:28.188Z,7.70
2023-03-14T14:33:21.066Z,3.47
2023-03-14T14:35:54.193Z,5.50
2023-03-14T14:38:21.819Z,2.33
2023-03-14T14:40:52.004Z,6.03
2023-03-14T14:43:28.740Z,6.03
2023-03-14T14:45:57.406Z,3.67
2023-03-14T14:48:25.999Z,7.47
2023-03-14T14:51:04.928Z,5.43
2023-03-14T14:53:42.929Z,3.83
2023-03-14T14:56:18.948Z,6.10
2023-03-14T14:58:47.161Z,4.80
2023-03-14T15:01:23.276Z,3.53
2023-03-14T15:03:52.699Z,5.68
2023-03-14T15:06:20.256Z,7.70
2023-03-14T15:08:49.597Z,8.17
2023-03-14T15:11:24.616Z,3.92
2023-03-14T15:13:52.608Z,5.53
2023-03-14T15:16:22.765Z,7.20
2023-03-14T15:18:57.690Z,13.80
2023-03-14T15:21:25.995Z,7.33
2023-03-14T15:23:52.891Z,7.22
2023-03-14T15:26:23.657Z,4.95
2023-03-14T15:28:50.782Z,7.32
2023-03-14T15:31:19.149Z,5.72
2023-03-14T15:33:46.631Z,7.07
2023-03-14T15:36:28.086Z,7.80
2023-03-14T15:38:56.609Z,3.90
2023-03-14T15:41:23.603Z,8.98
2023-03-14T15:43:50.765Z,4.20
2023-03-14T15:46:18.430Z,3.80
2023-03-14T15:48:46.239Z,2.33
2023-03-14T15:51:13.010Z,5.68
2023-03-14T15:53:40.053Z,10.45
2023-03-14T15:56:09.128Z,6.43
2023-03-14T15:58:35.915Z,7.90
2023-03-14T16:01:03.781Z,5.40
2023-03-14T16:03:30.601Z,4.60
2023-03-14T16:05:57.790Z,7.60
2023-03-14T16:08:26.791Z,4.80
2023-03-14T16:10:53.458Z,3.97
2023-03-14T16:13:20.098Z,5.05
2023-03-14T16:15:57.440Z,5.10
2023-03-14T16:18:24.351Z,4.95
2023-03-14T16:20:56.160Z,3.22
2023-03-14T16:23:23.008Z,6.20
2023-03-14T16:25:50.107Z,4.47
2023-03-14T16:28:16.840Z,3.40
2023-03-14T16:30:43.318Z,4.80
2023-03-14T16:33:12.416Z,4.10
2023-03-14T16:35:40.338Z,8.10
2023-03-14T16:38:07.588Z,4.80
2023-03-14T16:40:34.197Z,3.08
2023-03-14T16:45:50.967Z,2.85
2023-03-14T16:48:17.652Z,2.27
2023-03-14T16:50:44.231Z,4.93
2023-03-14T16:53:11.901Z,3.05
2023-03-14T16:55:43.128Z,8.00
2023-03-14T16:58:10.452Z,6.43
2023-03-14T17:00:37.469Z,7.60
2023-03-14T17:03:05.068Z,7.28
2023-03-14T17:05:32.266Z,6.55
2023-03-14T17:07:58.902Z,7.45
2023-03-14T17:10:25.603Z,3.47
2023-03-14T17:12:52.285Z,4.37
2023-03-14T17:15:18.950Z,8.32
2023-03-14T17:17:45.458Z,7.57
2023-03-14T17:20:12.391Z,7.38
2023-03-14T17:22:39.008Z,12.35
2023-03-14T17:25:06.090Z,5.13
2023-03-14T17:27:32.568Z,4.88
2023-03-14T17:29:59.022Z,9.60
2023-03-14T17:32:26.323Z,3.65
2023-03-14T17:34:54.542Z,6.47
2023-03-14T17:37:21.324Z,8.87
2023-03-14T17:39:48.003Z,7.95
2023-03-14T17:42:14.565Z,4.32
2023-03-14T17:44:42.081Z,4.60
2023-03-14T17:47:08.748Z,6.20
2023-03-14T17:49:35.432Z,5.53
2023-03-14T17:52:01.979Z,8.10
2023-03-14T17:54:28.620Z,3.22
2023-03-14T17:56:56.726Z,10.77
2023-03-14T17:59:23.837Z,8.32
2023-03-14T18:01:50.503Z,6.57
2023-03-14T18:04:17.365Z,5.18
2023-03-14T18:06:44.673Z,6.20
2023-03-14T18:09:11.256Z,7.35
2023-03-14T18:11:37.787Z,3.55
2023-03-14T18:14:07.635Z,6.72
2023-03-14T18:16:37.188Z,5.10
2023-03-14T18:19:03.833Z,4.80
2023-03-14T18:21:31.089Z,7.35
2023-03-14T18:23:57.705Z,10.57
2023-03-14T18:26:27.466Z,9.80
2023-03-14T18:28:54.859Z,5.28
2023-03-14T18:31:25.079Z,3.25
2023-03-14T18:33:55.266Z,3.22
2023-03-14T18:36:22.420Z,3.53
2023-03-14T18:38:50.733Z,6.25
2023-03-14T18:41:20.307Z,11.43
2023-03-14T18:43:46.862Z,7.70
2023-03-14T18:46:14.102Z,4.28
2023-03-14T18:48:42.393Z,5.72
2023-03-14T18:51:12.377Z,7.35
2023-03-14T18:53:39.511Z,4.25
2023-03-14T18:56:06.558Z,5.28
2023-03-14T18:58:33.133Z,5.80
2023-03-14T19:01:02.134Z,7.43
2023-03-14T19:03:29.950Z,4.95
2023-03-14T19:05:58.451Z,9.48
2023-03-14T19:08:26.442Z,11.95
2023-03-14T19:10:55.516Z,8.40
2023-03-14T19:13:23.280Z,9.13
2023-03-14T19:15:49.880Z,8.43
2023-03-14T19:18:16.653Z,11.30
2023-03-14T19:20:45.100Z,8.45
2023-03-14T19:23:14.352Z,5.85
2023-03-14T19:25:45.135Z,4.47
2023-03-14T19:28:11.610Z,8.10
2023-03-14T19:30:39.378Z,16.60
2023-03-14T19:33:06.022Z,9.82
2023-03-14T19:35:32.555Z,5.30
2023-03-14T19:37:59.145Z,6.35
2023-03-14T19:40:25.663Z,6.53
2023-03-14T19:42:52.253Z,9.90
2023-03-14T19:45:18.820Z,7.75
2023-03-14T19:47:45.421Z,7.10
2023-03-14T19:50:12.728Z,16.42
2023-03-14T19:52:43.849Z,16.42
2023-03-14T19:55:12.692Z,7.53
2023-03-14T19:57:40.108Z,8.57
2023-03-14T20:00:13.574Z,11.27
2023-03-14T20:02:40.191Z,5.90
2023-03-14T20:05:08.294Z,7.25
2023-03-14T20:07:34.890Z,15.07
2023-03-14T20:10:01.382Z,7.05
2023-03-14T20:12:30.686Z,9.25
2023-03-14T20:14:57.561Z,8.05
2023-03-14T20:17:24.295Z,9.13
2023-03-14T20:19:50.784Z,8.32
2023-03-14T20:22:17.338Z,8.32
2023-03-14T20:24:44.238Z,6.88
2023-03-14T20:27:11.081Z,5.82
2023-03-14T20:29:37.658Z,8.75
2023-03-14T20:32:06.641Z,5.90
2023-03-14T20:34:34.540Z,5.07
2023-03-14T20:37:02.786Z,5.47
2023-03-14T20:39:29.386Z,4.00
2023-03-14T20:41:55.891Z,5.45
2023-03-14T20:44:22.399Z,4.15
2023-03-14T20:46:48.990Z,5.18
2023-03-14T20:49:16.778Z,5.50
2023-03-14T20:51:43.264Z,4.03
2023-03-14T20:54:14.014Z,4.78
2023-03-14T20:56:40.684Z,5.47
2023-03-14T20:59:07.209Z,4.60
2023-03-14T21:04:18.562Z,4.07
2023-03-14T21:06:46.031Z,9.48
2023-03-14T21:09:12.585Z,7.50
2023-03-14T21:11:47.110Z,6.47
2023-03-14T21:14:13.793Z,6.50
2023-03-14T21:16:41.831Z,1.38
2023-03-14T21:19:08.409Z,3.03
2023-03-14T21:21:34.881Z,4.13
2023-03-14T21:24:02.521Z,3.28
2023-03-14T21:26:29.105Z,7.38
2023-03-14T21:28:55.657Z,6.97
2023-03-14T21:31:22.452Z,4.97
2023-03-14T21:33:49.091Z,2.88
2023-03-14T21:36:15.644Z,5.47
2023-03-14T21:38:42.648Z,5.32
2023-03-14T21:41:09.189Z,2.53
2023-03-14T21:43:36.731Z,3.42
2023-03-14T21:46:03.361Z,3.08
2023-03-14T21:48:30.104Z,8.30
2023-03-14T21:50:56.562Z,2.67
2023-03-14T21:53:29.851Z,6.57
2023-03-14T21:55:56.411Z,8.10
2023-03-14T21:58:24.057Z,5.53
2023-03-14T22:00:51.004Z,3.17
2023-03-14T22:03:19.266Z,5.10
2023-03-14T22:05:46.738Z,3.72
2023-03-14T22:08:15.134Z,4.30
2023-03-14T22:10:45.909Z,4.57
2023-03-14T22:13:12.639Z,5.70
2023-03-14T22:15:39.181Z,7.97
2023-03-14T22:18:05.728Z,3.10
2023-03-14T22:20:32.234Z,6.05
2023-03-14T22:22:58.781Z,5.50
2023-03-14T22:25:25.315Z,5.45
2023-03-14T22:27:51.850Z,3.33
2023-03-14T22:30:18.421Z,3.97
2023-03-14T22:32:44.981Z,5.50
2023-03-14T22:35:11.485Z,4.25
2023-03-14T22:37:40.920Z,5.68
2023-03-14T22:40:08.673Z,2.00
2023-03-14T22:42:35.160Z,4.10
2023-03-14T22:45:01.694Z,4.97
2023-03-14T22:47:28.141Z,5.73
2023-03-14T22:49:54.609Z,2.25
2023-03-14T22:52:21.163Z,3.33
2023-03-14T22:54:47.620Z,4.80
2023-03-14T22:57:14.074Z,2.55
2023-03-14T22:59:40.509Z,6.30
2023-03-14T23:02:07.001Z,2.17
2023-03-14T23:04:33.510Z,3.65
2023-03-14T23:06:59.933Z,3.95
2023-03-14T23:09:26.382Z,1.85
2023-03-14T23:11:53.768Z,6.93
2023-03-14T23:14:23.009Z,6.60
2023-03-14T23:16:50.803Z,6.10
2023-03-14T23:19:18.214Z,5.60
2023-03-14T23:21:44.678Z,2.53
2023-03-14T23:24:11.317Z,5.47
2023-03-14T23:26:38.034Z,3.70
2023-03-14T23:29:05.508Z,6.95
2023-03-14T23:31:33.146Z,6.13
2023-03-14T23:33:59.661Z,3.05
2023-03-14T23:36:26.201Z,5.38
2023-03-14T23:38:52.850Z,1.83
2023-03-14T23:41:19.289Z,3.00
2023-03-14T23:43:46.868Z,4.78
2023-03-14T23:46:14.649Z,5.18
2023-03-14T23:48:41.188Z,2.80
2023-03-14T23:51:10.524Z,3.75
2023-03-14T23:53:37.141Z,5.63
2023-03-14T23:56:04.364Z,6.10
2023-03-14T23:58:35.841Z,3.45
